Time;durP1;ratioP1;P1;durP2;ratioP2;P2;SDS_P1;SDS_P2;PMS_P1;PMS_P2;Temp;Humidity;BMP_temperature;BMP_pressure;BME280_temperature;BME280_humidity;BME280_pressure;Samples;Min_cycle;Max_cycle;Signal;HPM_P1;HPM_P2
2024/04/05 00:01:09;;;;;;;5.27;4.30;;;;;;;11.27;95.81;99736.59;5042963;28;20280;-64
2024/04/05 00:03:36;;;;;;;4.87;4.30;;;;;;;11.24;95.79;99736.66;5064894;28;20213;-64
2024/04/05 00:06:02;;;;;;;5.33;4.33;;;;;;;11.25;95.58;99738.34;5070946;28;20217;-64
2024/04/05 00:08:33;;;;;;;4.87;4.20;;;;;;;11.28;95.42;99738.28;5047668;28;20210;-63
2024/04/05 00:10:59;;;;;;;5.00;4.40;;;;;;;11.29;95.12;99737.41;5054940;28;20607;-65
2024/04/05 00:13:26;;;;;;;6.37;4.23;;;;;;;11.29;95.50;99732.25;5055789;28;20260;-64
2024/04/05 00:15:52;;;;;;;7.10;4.73;;;;;;;11.30;94.96;99736.50;5059178;28;20210;-65
2024/04/05 00:18:20;;;;;;;5.20;4.23;;;;;;;11.29;95.08;99738.25;5047703;28;20214;-65
2024/04/05 00:20:46;;;;;;;5.60;4.27;;;;;;;11.30;95.21;99744.25;5052465;28;20287;-64
2024/04/05 00:23:13;;;;;;;7.47;4.17;;;;;;;11.28;94.92;99741.72;5050221;28;20214;-64
2024/04/05 00:25:41;;;;;;;4.60;3.93;;;;;;;11.30;95.08;99758.03;5052063;28;20573;-65
2024/04/05 00:28:08;;;;;;;7.17;4.97;;;;;;;11.33;95.05;99767.41;5051790;28;20221;-65
2024/04/05 00:30:35;;;;;;;6.47;3.97;;;;;;;11.33;95.11;99772.56;5054142;28;20202;-64
2024/04/05 00:33:02;;;;;;;5.20;3.67;;;;;;;11.31;96.34;99772.59;5057069;28;20212;-63
2024/04/05 00:35:28;;;;;;;6.13;3.93;;;;;;;11.30;97.06;99773.50;5071552;28;20236;-63
2024/04/05 00:37:55;;;;;;;5.60;3.90;;;;;;;11.27;97.96;99770.97;5051564;28;20575;-64
2024/04/05 00:40:21;;;;;;;5.73;3.93;;;;;;;11.23;98.39;99765.88;5054657;28;20221;-64
2024/04/05 00:42:51;;;;;;;7.03;4.67;;;;;;;11.22;99.22;99770.19;5038181;28;20207;-63
2024/04/05 00:45:17;;;;;;;6.13;4.23;;;;;;;11.17;99.33;99766.84;5049968;28;20259;-67
2024/04/05 00:47:44;;;;;;;5.67;4.43;;;;;;;11.17;100.00;99771.16;5052185;28;20206;-65
2024/04/05 00:50:10;;;;;;;5.73;5.13;;;;;;;11.16;100.00;99779.75;5057933;28;20240;-63
2024/04/05 00:52:37;;;;;;;6.60;4.47;;;;;;;11.08;100.00;99770.47;5068230;28;20247;-64
2024/04/05 00:55:03;;;;;;;5.77;4.53;;;;;;;11.11;100.00;99766.97;5056163;28;20882;-63
2024/04/05 00:57:30;;;;;;;8.53;4.67;;;;;;;11.11;100.00;99762.66;5061026;28;20216;-68
2024/04/05 00:59:58;;;;;;;5.33;4.60;;;;;;;11.12;100.00;99766.94;5045659;28;20351;-63
2024/04/05 01:02:26;;;;;;;6.13;4.77;;;;;;;11.12;100.00;99763.53;5040086;28;20217;-66
2024/04/05 01:04:52;;;;;;;6.53;4.60;;;;;;;11.12;100.00;99764.38;5051002;28;20199;-65
2024/04/05 01:07:19;;;;;;;5.83;4.07;;;;;;;11.15;100.00;99765.16;5050974;28;20213;-68
2024/04/05 01:09:45;;;;;;;5.80;4.40;;;;;;;11.12;100.00;99766.94;5051147;28;20213;-64
2024/04/05 01:12:14;;;;;;;5.00;4.50;;;;;;;11.13;100.00;99772.94;5041111;28;20218;-63
2024/04/05 01:14:40;;;;;;;5.53;4.20;;;;;;;11.14;100.00;99772.06;5059683;28;20291;-65
2024/04/05 01:17:08;;;;;;;5.37;4.10;;;;;;;11.16;100.00;99780.63;5054219;28;20562;-65
2024/04/05 01:19:36;;;;;;;7.40;4.57;;;;;;;11.17;100.00;99781.47;5060198;28;20658;-63
2024/04/05 01:22:05;;;;;;;7.30;4.47;;;;;;;11.20;100.00;99786.59;5058610;28;20197;-65
2024/04/05 01:24:32;;;;;;;5.97;4.43;;;;;;;11.21;100.00;99783.13;5070427;28;20651;-67
2024/04/05 01:26:59;;;;;;;6.70;5.30;;;;;;;11.21;100.00;99788.28;5057942;28;20202;-65
2024/04/05 01:29:25;;;;;;;6.50;5.03;;;;;;;11.20;100.00;99796.91;5055535;28;20205;-65
2024/04/05 01:31:52;;;;;;;6.40;5.60;;;;;;;11.20;100.00;99786.59;5056654;28;20232;-70
2024/04/05 01:34:18;;;;;;;6.23;5.63;;;;;;;11.20;100.00;99797.75;5050597;28;20700;-64
2024/04/05 01:36:45;;;;;;;7.83;5.60;;;;;;;11.20;100.00;99796.91;5050604;28;20308;-63
2024/04/05 01:39:10;;;;;;;6.57;5.17;;;;;;;11.20;100.00;99804.63;5065550;28;20656;-64
2024/04/05 01:41:39;;;;;;;5.87;5.27;;;;;;;11.20;100.00;99796.91;5065424;28;20284;-66
2024/04/05 01:44:05;;;;;;;6.63;5.10;;;;;;;11.20;100.00;99791.75;5050621;28;20213;-65
2024/04/05 01:46:32;;;;;;;5.90;4.63;;;;;;;11.19;100.00;99795.19;5067265;28;20997;-65
2024/04/05 01:48:58;;;;;;;6.43;4.87;;;;;;;11.18;100.00;99803.81;5058623;28;20296;-65
2024/04/05 01:51:25;;;;;;;6.03;5.33;;;;;;;11.16;100.00;99800.38;5054168;28;20675;-64
2024/04/05 01:53:51;;;;;;;4.83;4.30;;;;;;;11.13;100.00;99806.47;5045301;28;20685;-65
2024/04/05 01:56:18;;;;;;;5.07;4.57;;;;;;;11.10;100.00;99806.53;5068229;28;20209;-66
2024/04/05 01:58:45;;;;;;;4.27;3.63;;;;;;;11.04;100.00;99804.88;5058523;28;20218;-63
2024/04/05 02:01:13;;;;;;;4.97;4.37;;;;;;;11.01;100.00;99806.66;5052075;28;20627;-66
2024/04/05 02:03:39;;;;;;;5.23;3.67;;;;;;;10.99;100.00;99813.59;5067011;28;20213;-65
2024/04/05 02:06:13;;;;;;;4.03;3.47;;;;;;;10.97;100.00;99811.06;5069663;28;20928;-66
2024/04/05 02:08:39;;;;;;;3.87;3.00;;;;;;;10.95;100.00;99817.09;5050492;28;20224;-64
2024/04/05 02:11:06;;;;;;;5.60;2.90;;;;;;;10.95;100.00;99812.78;5048185;28;20205;-65
2024/04/05 02:13:32;;;;;;;5.47;3.07;;;;;;;10.95;100.00;99823.09;5055950;28;20202;-66
2024/04/05 02:16:00;;;;;;;4.07;2.60;;;;;;;10.95;100.00;99819.69;5061105;28;20322;-64
2024/04/05 02:18:27;;;;;;;2.60;2.37;;;;;;;10.96;100.00;99829.94;5040387;28;20619;-66
2024/04/05 02:20:55;;;;;;;3.63;2.47;;;;;;;10.96;99.50;99824.78;5056618;28;20294;-64
2024/04/05 02:23:21;;;;;;;3.73;2.40;;;;;;;10.94;99.47;99830.88;5060811;28;20209;-64
2024/04/05 02:25:48;;;;;;;3.97;2.30;;;;;;;10.94;99.34;99831.72;5074190;28;20583;-65
2024/04/05 02:28:14;;;;;;;2.00;1.80;;;;;;;10.95;99.72;99843.72;5071198;28;20232;-65
2024/04/05 02:30:42;;;;;;;4.40;1.90;;;;;;;10.95;99.59;99843.72;5048168;28;20208;-66
2024/04/05 02:33:12;;;;;;;5.63;2.17;;;;;;;10.92;99.74;99838.63;5055904;28;20641;-64
2024/04/05 02:35:39;;;;;;;2.27;2.00;;;;;;;10.93;99.40;99844.63;5048106;28;20550;-65
2024/04/05 02:38:05;;;;;;;2.73;1.97;;;;;;;10.89;99.76;99842.09;5057779;28;20202;-64
2024/04/05 02:40:32;;;;;;;3.80;1.97;;;;;;;10.91;99.91;99843.81;5060727;28;20205;-66
2024/04/05 02:42:58;;;;;;;2.17;1.83;;;;;;;10.89;100.00;99849.81;5073104;28;20248;-64
2024/04/05 02:45:26;;;;;;;2.97;1.97;;;;;;;10.89;99.76;99851.53;5069465;28;20630;-69
2024/04/05 02:47:52;;;;;;;2.40;1.67;;;;;;;10.88;99.65;99849.84;5048215;28;20204;-65
2024/04/05 02:50:20;;;;;;;3.27;1.77;;;;;;;10.87;99.70;99843.00;5065186;28;20575;-65
2024/04/05 02:52:46;;;;;;;2.17;1.67;;;;;;;10.88;99.40;99848.13;5054679;28;20327;-65
2024/04/05 02:55:13;;;;;;;1.67;1.50;;;;;;;10.87;99.00;99850.75;5044597;28;20234;-65
2024/04/05 02:57:39;;;;;;;5.30;1.97;;;;;;;10.89;99.11;99846.41;5060210;28;20213;-72
2024/04/05 03:00:09;;;;;;;3.07;1.87;;;;;;;10.88;98.82;99840.38;5068300;28;20213;-66
2024/04/05 03:02:35;;;;;;;3.47;1.87;;;;;;;10.88;98.59;99837.81;5061895;28;20216;-65
2024/04/05 03:05:02;;;;;;;2.30;1.70;;;;;;;10.87;98.48;99843.00;5062272;28;20708;-65
2024/04/05 03:07:29;;;;;;;3.37;2.00;;;;;;;10.85;98.67;99847.31;5051631;28;20259;-64
2024/04/05 03:09:57;;;;;;;2.10;1.90;;;;;;;10.88;98.51;99842.97;5058561;28;20699;-62
2024/04/05 03:12:23;;;;;;;2.17;1.53;;;;;;;10.89;98.34;99844.66;5051270;28;20215;-64
2024/04/05 03:14:52;;;;;;;2.73;1.90;;;;;;;10.88;97.84;99847.28;5057847;28;20220;-62
2024/04/05 03:17:18;;;;;;;2.50;1.70;;;;;;;10.88;97.65;99852.44;5071374;28;20213;-63
2024/04/05 03:19:45;;;;;;;2.00;1.53;;;;;;;10.89;97.67;99854.97;5060614;28;20221;-64
2024/04/05 03:22:11;;;;;;;1.93;1.77;;;;;;;10.88;97.59;99867.91;5054918;28;20209;-62
2024/04/05 03:24:39;;;;;;;2.10;1.90;;;;;;;10.90;97.24;99866.16;5054272;28;20201;-64
2024/04/05 03:27:06;;;;;;;2.47;1.67;;;;;;;10.89;96.84;99874.75;5068657;28;20210;-64
2024/04/05 03:29:36;;;;;;;2.97;1.70;;;;;;;10.86;96.97;99874.78;5041795;28;20214;-63
2024/04/05 03:32:04;;;;;;;3.03;1.80;;;;;;;10.85;96.69;99879.09;5064567;28;20217;-64
2024/04/05 03:34:33;;;;;;;4.13;1.70;;;;;;;10.83;96.83;99885.16;5055439;28;20654;-63
2024/04/05 03:37:01;;;;;;;2.60;2.00;;;;;;;10.79;97.06;99886.94;5052971;28;20233;-63
2024/04/05 03:39:28;;;;;;;1.60;1.47;;;;;;;10.77;97.24;99890.41;5048874;28;20209;-62
2024/04/05 03:41:56;;;;;;;2.13;1.43;;;;;;;10.77;96.97;99905.88;5041081;28;20229;-66
2024/04/05 03:44:22;;;;;;;2.87;1.60;;;;;;;10.76;96.92;99904.19;5054986;28;20253;-64
2024/04/05 03:46:49;;;;;;;2.80;1.70;;;;;;;10.72;97.12;99907.66;5071040;28;20220;-63
2024/04/05 03:49:15;;;;;;;4.07;1.70;;;;;;;10.70;97.31;99909.41;5049964;28;20674;-63
2024/04/05 03:51:42;;;;;;;2.90;1.83;;;;;;;10.69;97.33;99908.56;5062285;28;20243;-63
2024/04/05 03:54:08;;;;;;;4.97;1.80;;;;;;;10.66;97.35;99915.47;5058950;28;20661;-64
2024/04/05 03:56:34;;;;;;;3.30;1.40;;;;;;;10.66;97.65;99924.06;5061793;28;20236;-63
2024/04/05 03:59:03;;;;;;;1.93;1.83;;;;;;;10.64;97.76;99925.78;5053993;28;20213;-62
2024/04/05 04:01:30;;;;;;;2.47;1.70;;;;;;;10.62;97.82;99928.41;5043533;28;20740;-63
2024/04/05 04:03:57;;;;;;;2.13;1.70;;;;;;;10.60;97.71;99925.00;5051334;28;20210;-65
2024/04/05 04:06:24;;;;;;;1.93;1.53;;;;;;;10.61;97.59;99931.00;5054180;28;20210;-65
2024/04/05 04:08:50;;;;;;;2.40;2.10;;;;;;;10.59;97.73;99932.75;5071403;28;20205;-63
2024/04/05 04:11:18;;;;;;;4.43;2.13;;;;;;;10.58;97.59;99926.75;5071713;28;20213;-63
2024/04/05 04:13:44;;;;;;;3.63;2.40;;;;;;;10.57;97.69;99921.63;5060469;28;20209;-64
2024/04/05 04:16:12;;;;;;;2.63;2.30;;;;;;;10.57;97.79;99934.50;5047540;28;20241;-66
2024/04/05 04:18:38;;;;;;;3.03;2.20;;;;;;;10.53;97.60;99937.97;5057028;28;20206;-65
2024/04/05 04:21:06;;;;;;;2.43;1.93;;;;;;;10.51;97.84;99934.56;5050860;28;20268;-65
2024/04/05 04:23:33;;;;;;;2.23;2.00;;;;;;;10.48;97.60;99944.91;5055662;28;20206;-67
2024/04/05 04:26:01;;;;;;;3.13;2.30;;;;;;;10.45;97.90;99945.78;5053398;28;20210;-65
2024/04/05 04:28:27;;;;;;;2.80;1.97;;;;;;;10.43;98.01;99941.56;5056098;28;20218;-65
2024/04/05 04:30:54;;;;;;;5.23;2.50;;;;;;;10.40;97.92;99947.59;5057126;28;20209;-64
2024/04/05 04:33:22;;;;;;;2.27;1.83;;;;;;;10.38;97.84;99949.31;5070720;28;20232;-64
2024/04/05 04:35:49;;;;;;;3.47;2.10;;;;;;;10.37;97.89;99958.78;5040983;28;20221;-64
2024/04/05 04:38:15;;;;;;;3.37;2.30;;;;;;;10.32;97.99;99963.13;5056962;28;20213;-65
2024/04/05 04:40:42;;;;;;;2.03;1.83;;;;;;;10.32;97.96;99968.28;5068309;28;20580;-64
2024/04/05 04:43:08;;;;;;;3.73;2.63;;;;;;;10.31;97.94;99979.47;5031851;28;20219;-66
2024/04/05 04:45:35;;;;;;;5.27;2.37;;;;;;;10.29;98.40;99990.66;5040510;28;20198;-63
2024/04/05 04:48:01;;;;;;;3.03;2.30;;;;;;;10.27;98.44;99993.25;5045414;28;20244;-64
2024/04/05 04:50:30;;;;;;;2.20;2.00;;;;;;;10.20;98.26;99980.41;5062171;28;20213;-65
2024/04/05 04:52:56;;;;;;;3.73;2.10;;;;;;;10.24;98.18;99995.81;5042102;28;20248;-67
2024/04/05 04:55:22;;;;;;;6.63;2.60;;;;;;;10.21;98.30;99998.44;5049000;28;20650;-64
2024/04/05 04:57:49;;;;;;;2.70;2.20;;;;;;;10.17;98.24;99989.03;5043699;28;20582;-65
2024/04/05 05:00:16;;;;;;;3.17;2.40;;;;;;;10.18;98.80;100007.91;5064395;28;20205;-64
2024/04/05 05:02:43;;;;;;;2.63;2.27;;;;;;;10.15;98.17;100007.06;5064673;28;20212;-66
2024/04/05 05:05:11;;;;;;;2.97;2.30;;;;;;;10.14;98.53;100005.34;5051089;28;20210;-65
2024/04/05 05:07:39;;;;;;;2.50;1.90;;;;;;;10.11;98.38;100012.25;5045440;28;20214;-65
2024/04/05 05:10:09;;;;;;;3.07;2.10;;;;;;;10.11;98.34;100014.84;5056332;28;20210;-64
2024/04/05 05:12:35;;;;;;;3.50;2.37;;;;;;;10.10;98.07;100024.28;5040426;28;20221;-65
2024/04/05 05:15:02;;;;;;;2.43;2.10;;;;;;;10.08;98.08;100023.44;5065729;28;20232;-66
2024/04/05 05:17:28;;;;;;;2.50;2.13;;;;;;;10.13;97.91;100015.69;5055799;28;20264;-66
2024/04/05 05:19:56;;;;;;;2.57;2.20;;;;;;;10.14;97.85;100023.38;5053916;28;20696;-69
2024/04/05 05:22:22;;;;;;;3.63;2.27;;;;;;;10.20;97.10;100031.91;5050641;28;20206;-64
2024/04/05 05:24:50;;;;;;;3.10;2.00;;;;;;;10.20;96.87;100029.31;5066533;28;20198;-68
2024/04/05 05:27:16;;;;;;;2.70;2.13;;;;;;;10.20;97.29;100031.91;5048278;28;20205;-63
2024/04/05 05:29:43;;;;;;;3.43;2.20;;;;;;;10.20;96.67;100037.94;5053028;28;20258;-63
2024/04/05 05:32:11;;;;;;;2.20;2.00;;;;;;;10.20;96.66;100044.78;5045196;28;20210;-64
2024/04/05 05:34:39;;;;;;;4.53;2.10;;;;;;;10.22;97.05;100040.47;5051076;28;20233;-66
2024/04/05 05:37:05;;;;;;;6.73;2.17;;;;;;;10.21;96.15;100042.19;5043993;28;20206;-62
2024/04/05 05:39:36;;;;;;;2.40;1.70;;;;;;;10.24;96.46;100043.91;5049386;28;20218;-62
2024/04/05 05:42:04;;;;;;;2.67;1.83;;;;;;;10.28;95.85;100051.59;5049159;28;20210;-63
2024/04/05 05:44:32;;;;;;;3.70;2.70;;;;;;;10.31;95.49;100045.53;5046358;28;20214;-66
2024/04/05 05:46:58;;;;;;;4.13;1.77;;;;;;;10.35;95.50;100053.25;5051143;28;20665;-62
2024/04/05 05:49:25;;;;;;;4.53;1.73;;;;;;;10.36;94.88;100052.38;5052914;28;20212;-63
2024/04/05 05:51:51;;;;;;;2.30;1.93;;;;;;;10.37;94.58;100053.22;5046315;28;20209;-63
2024/04/05 05:54:19;;;;;;;2.87;1.90;;;;;;;10.35;93.74;100058.41;5049601;28;20667;-62
2024/04/05 05:56:45;;;;;;;4.13;2.00;;;;;;;10.39;94.06;100064.38;5049162;28;20229;-62
2024/04/05 05:59:14;;;;;;;2.60;2.00;;;;;;;10.48;94.01;100068.56;5051274;28;20217;-67
2024/04/05 06:01:40;;;;;;;3.73;1.90;;;;;;;10.57;92.02;100078.78;5044871;28;20211;-62
2024/04/05 06:04:07;;;;;;;3.23;2.30;;;;;;;10.62;92.78;100067.53;5046769;28;20264;-63
2024/04/05 06:06:33;;;;;;;3.87;2.13;;;;;;;10.74;92.29;100083.72;5053281;28;20210;-64
2024/04/05 06:09:01;;;;;;;3.00;1.90;;;;;;;10.87;90.84;100090.47;5055357;28;20217;-60
2024/04/05 06:11:27;;;;;;;7.13;2.30;;;;;;;10.97;89.92;100101.50;5046442;28;20218;-59
2024/04/05 06:13:55;;;;;;;2.60;1.87;;;;;;;11.07;90.25;100101.34;5044877;28;20206;-61
2024/04/05 06:16:23;;;;;;;2.00;1.80;;;;;;;11.19;89.88;100104.66;5048751;28;20241;-61
2024/04/05 06:18:50;;;;;;;2.27;1.73;;;;;;;11.17;88.90;100104.69;5056364;28;20583;-61
2024/04/05 06:21:16;;;;;;;2.40;1.87;;;;;;;11.21;88.17;100115.81;5045075;28;20236;-60
2024/04/05 06:23:43;;;;;;;3.00;2.03;;;;;;;11.22;89.02;100104.63;5051716;28;20217;-60
2024/04/05 06:26:09;;;;;;;2.77;1.80;;;;;;;11.36;88.88;100110.44;5050020;28;20205;-63
2024/04/05 06:28:38;;;;;;;4.27;2.00;;;;;;;11.39;87.02;100117.28;5049511;28;20665;-61
2024/04/05 06:31:05;;;;;;;3.67;2.30;;;;;;;11.32;87.15;100126.84;5069641;28;20208;-59
2024/04/05 06:33:33;;;;;;;3.43;1.90;;;;;;;11.28;88.22;100127.75;5070096;28;20216;-59
2024/04/05 06:36:00;;;;;;;2.30;1.97;;;;;;;11.20;87.05;100138.19;5063572;28;20229;-59
2024/04/05 06:38:27;;;;;;;4.50;2.20;;;;;;;11.11;88.08;100133.13;5038298;28;20282;-60
2024/04/05 06:40:57;;;;;;;5.07;2.10;;;;;;;11.08;88.10;100130.56;5062231;28;20579;-60
2024/04/05 06:43:25;;;;;;;2.00;1.53;;;;;;;11.10;88.69;100136.56;5046671;28;20202;-59
2024/04/05 06:45:54;;;;;;;3.53;1.80;;;;;;;11.16;88.55;100141.66;5046068;28;20254;-62
2024/04/05 06:48:22;;;;;;;3.33;1.70;;;;;;;11.10;87.60;100136.56;5051062;28;20213;-61
2024/04/05 06:50:50;;;;;;;4.83;2.00;;;;;;;11.06;87.63;100140.91;5056884;28;20557;-62
2024/04/05 06:53:19;;;;;;;3.00;1.97;;;;;;;11.12;88.43;100148.59;5063238;28;20213;-61
2024/04/05 06:55:46;;;;;;;4.60;2.33;;;;;;;11.16;87.88;100148.53;5054303;28;20701;-62
2024/04/05 06:58:13;;;;;;;3.10;1.80;;;;;;;11.28;88.00;100145.81;5049762;28;20202;-63
2024/04/05 07:00:39;;;;;;;1.87;1.70;;;;;;;11.56;87.73;100157.47;5046522;28;20553;-62
2024/04/05 07:03:07;;;;;;;2.10;1.80;;;;;;;11.85;84.25;100154.47;5031788;28;20214;-60
2024/04/05 07:05:32;;;;;;;3.23;1.90;;;;;;;13.32;81.24;100153.59;5043583;28;20210;-61
2024/04/05 07:08:01;;;;;;;2.47;1.70;;;;;;;13.88;73.05;100151.50;5049857;28;20212;-61
2024/04/05 07:10:27;;;;;;;2.53;1.60;;;;;;;14.92;69.62;100142.84;5042391;28;20217;-64
2024/04/05 07:12:56;;;;;;;3.78;1.50;;;;;;;14.97;67.51;100141.81;5051539;28;20723;-61
2024/04/05 07:15:23;;;;;;;2.08;1.38;;;;;;;14.53;69.02;100149.94;5053418;28;20252;-60
2024/04/05 07:17:51;;;;;;;2.25;1.50;;;;;;;13.83;71.67;100152.50;5052646;28;20210;-62
2024/04/05 07:20:17;;;;;;;2.72;1.60;;;;;;;13.96;73.38;100159.94;5054693;28;20264;-58
2024/04/05 07:22:44;;;;;;;8.57;1.55;;;;;;;15.64;65.74;100174.47;5066922;28;20202;-60
2024/04/05 07:25:12;;;;;;;6.30;1.85;;;;;;;16.72;59.96;100174.50;5050967;28;20229;-62
2024/04/05 07:27:39;;;;;;;3.30;1.42;;;;;;;16.31;60.38;100171.53;5047096;28;20217;-60
2024/04/05 07:30:06;;;;;;;3.58;1.40;;;;;;;15.85;62.07;100179.06;5056761;28;20636;-62
2024/04/05 07:32:33;;;;;;;3.08;1.30;;;;;;;15.41;63.79;100180.38;5053806;28;20537;-60
2024/04/05 07:34:59;;;;;;;2.45;1.40;;;;;;;15.61;63.83;100174.56;5053214;28;20213;-60
2024/04/05 07:37:26;;;;;;;1.73;1.15;;;;;;;15.70;61.57;100192.53;5055666;28;20255;-59
2024/04/05 07:39:54;;;;;;;2.70;1.50;;;;;;;14.87;64.38;100206.94;5064156;28;20224;-60
2024/04/05 07:42:23;;;;;;;2.75;1.75;;;;;;;14.24;66.75;100205.91;5064175;28;20213;-60
2024/04/05 07:44:53;;;;;;;4.82;1.52;;;;;;;13.90;68.66;100209.28;5059762;28;20213;-60
2024/04/05 07:47:21;;;;;;;3.85;1.55;;;;;;;13.46;69.89;100216.28;5063986;28;20758;-60
2024/04/05 07:49:51;;;;;;;5.65;1.58;;;;;;;13.18;71.63;100213.38;5063240;28;20205;-62
2024/04/05 07:52:20;;;;;;;4.63;1.60;;;;;;;12.89;73.41;100224.28;5060407;28;20201;-64
2024/04/05 07:54:46;;;;;;;4.57;1.90;;;;;;;12.81;73.92;100228.72;5064368;28;20228;-60
2024/04/05 07:57:13;;;;;;;3.30;2.07;;;;;;;12.69;74.39;100224.63;5064867;28;20253;-59
2024/04/05 07:59:40;;;;;;;2.27;1.60;;;;;;;12.78;75.32;100229.63;5053810;28;20194;-60
2024/04/05 08:02:09;;;;;;;2.40;1.70;;;;;;;12.92;74.93;100229.38;5052391;28;20581;-59
2024/04/05 08:04:35;;;;;;;3.47;1.87;;;;;;;13.06;73.17;100232.56;5065712;28;20193;-60
2024/04/05 08:07:02;;;;;;;4.10;1.97;;;;;;;13.20;73.27;100234.91;5064749;28;20271;-60
2024/04/05 08:09:28;;;;;;;2.27;1.57;;;;;;;13.39;73.37;100230.22;5056688;28;20610;-61
2024/04/05 08:11:55;;;;;;;2.27;1.33;;;;;;;13.48;72.62;100232.66;5054024;28;20256;-60
2024/04/05 08:14:23;;;;;;;2.23;1.50;;;;;;;13.56;72.40;100221.28;5065486;28;20217;-59
2024/04/05 08:16:53;;;;;;;2.77;1.60;;;;;;;13.71;72.35;100233.91;5055411;28;20692;-60
2024/04/05 08:19:19;;;;;;;3.70;1.60;;;;;;;13.70;70.97;100224.44;5063202;28;20221;-60
2024/04/05 08:21:46;;;;;;;1.90;1.70;;;;;;;13.56;71.33;100237.66;5060942;28;20283;-59
2024/04/05 08:24:12;;;;;;;3.57;1.73;;;;;;;13.53;72.17;100242.91;5064766;28;20574;-61
2024/04/05 08:26:39;;;;;;;2.27;1.80;;;;;;;13.59;71.82;100239.34;5065980;28;20201;-59
2024/04/05 08:29:05;;;;;;;3.83;2.00;;;;;;;13.64;71.94;100247.88;5057048;28;20213;-61
2024/04/05 08:31:32;;;;;;;2.90;1.90;;;;;;;13.66;71.12;100248.66;5057738;28;20271;-61
2024/04/05 08:33:59;;;;;;;3.63;1.80;;;;;;;13.78;71.18;100243.25;5055300;28;20209;-64
2024/04/05 08:36:27;;;;;;;1.63;1.30;;;;;;;14.04;69.14;100245.25;5057422;28;20229;-62
2024/04/05 08:38:55;;;;;;;3.17;1.50;;;;;;;13.91;69.92;100262.81;5058340;28;20214;-62
2024/04/05 08:41:29;;;;;;;4.57;1.60;;;;;;;13.87;70.61;100260.31;5051216;28;20681;-63
2024/04/05 08:43:58;;;;;;;2.67;1.53;;;;;;;13.75;69.46;100259.69;5053898;28;20209;-64
2024/04/05 08:46:25;;;;;;;5.17;1.90;;;;;;;13.67;70.26;100260.75;5062176;28;20258;-60
2024/04/05 08:48:53;;;;;;;2.20;1.67;;;;;;;13.80;70.78;100266.50;5054821;28;20221;-60
2024/04/05 08:51:21;;;;;;;1.93;1.50;;;;;;;13.93;68.87;100271.41;5069066;28;20201;-62
2024/04/05 08:53:48;;;;;;;1.37;1.27;;;;;;;13.94;69.13;100265.34;5065764;28;20290;-60
2024/04/05 08:56:17;;;;;;;4.57;1.47;;;;;;;13.99;68.48;100268.69;5058516;28;20633;-59
2024/04/05 08:58:44;;;;;;;2.37;1.27;;;;;;;14.09;67.97;100271.06;5055774;28;20209;-59
2024/04/05 09:01:11;;;;;;;2.80;1.40;;;;;;;14.12;68.11;100276.19;5032660;28;20217;-62
2024/04/05 09:03:38;;;;;;;2.08;1.38;;;;;;;14.01;68.33;100268.66;5049854;28;20202;-60
2024/04/05 09:06:05;;;;;;;3.50;1.57;;;;;;;13.85;68.49;100275.06;5053827;28;20721;-61
2024/04/05 09:08:42;;;;;;;2.67;1.53;;;;;;;13.74;69.63;100285.63;5058246;28;20208;-61
2024/04/05 09:11:10;;;;;;;2.47;1.30;;;;;;;13.64;69.28;100277.19;5058572;28;20221;-60
2024/04/05 09:13:36;;;;;;;2.77;1.33;;;;;;;13.59;69.00;100283.38;5063711;28;20668;-61
2024/04/05 09:16:03;;;;;;;2.20;1.53;;;;;;;13.54;69.30;100286.88;5057979;28;20233;-61
2024/04/05 09:18:29;;;;;;;1.90;1.33;;;;;;;13.47;68.73;100280.09;5067250;28;20201;-62
2024/04/05 09:20:58;;;;;;;4.10;1.40;;;;;;;13.41;69.44;100290.59;5065232;28;20272;-64
2024/04/05 09:23:24;;;;;;;3.50;1.30;;;;;;;13.48;69.96;100289.59;5051640;28;20292;-62
2024/04/05 09:26:03;;;;;;;2.90;1.50;;;;;;;13.63;70.29;100297.94;5050875;28;20948;-62
2024/04/05 09:28:29;;;;;;;2.77;1.60;;;;;;;13.70;70.45;100291.78;5051885;28;20216;-63
2024/04/05 09:30:59;;;;;;;5.00;1.50;;;;;;;13.74;70.04;100289.06;5055603;28;20315;-62
2024/04/05 09:33:25;;;;;;;2.93;1.73;;;;;;;13.74;69.89;100293.41;5055139;28;20216;-64
2024/04/05 09:35:55;;;;;;;2.20;1.50;;;;;;;13.73;69.77;100292.56;5040678;28;20226;-60
2024/04/05 09:38:22;;;;;;;3.80;1.60;;;;;;;13.84;69.77;100297.50;5050104;28;20213;-61
2024/04/05 09:40:49;;;;;;;2.30;1.60;;;;;;;13.97;69.74;100291.19;5064224;28;20284;-62
2024/04/05 09:43:19;;;;;;;3.30;1.63;;;;;;;14.20;68.82;100295.00;5046033;28;20230;-62
2024/04/05 09:45:47;;;;;;;2.27;1.50;;;;;;;14.36;66.89;100293.78;5034548;28;20210;-60
2024/04/05 09:48:13;;;;;;;3.97;2.03;;;;;;;14.49;67.90;100290.03;5037091;28;20260;-60
2024/04/05 09:50:41;;;;;;;2.60;1.70;;;;;;;14.65;65.99;100292.25;5050497;28;20207;-61
2024/04/05 09:53:08;;;;;;;2.97;1.50;;;;;;;14.84;64.85;100300.41;5041455;28;20216;-59
2024/04/05 09:55:40;;;;;;;4.03;1.73;;;;;;;14.72;65.69;100286.03;5056203;28;20251;-60
2024/04/05 09:58:06;;;;;;;2.20;1.70;;;;;;;14.77;66.09;100297.16;5049965;28;20221;-60
2024/04/05 10:00:36;;;;;;;3.80;1.80;;;;;;;14.59;65.69;100295.00;5047832;28;20210;-67
2024/04/05 10:03:04;;;;;;;2.33;1.70;;;;;;;14.56;66.24;100298.50;5063093;28;20206;-62
2024/04/05 10:05:33;;;;;;;3.67;1.70;;;;;;;14.49;66.38;100296.91;5066222;28;20213;-62
2024/04/05 10:08:08;;;;;;;3.07;1.47;;;;;;;14.29;67.75;100297.41;5069932;28;20761;-62
2024/04/05 10:10:36;;;;;;;2.90;2.00;;;;;;;14.29;68.63;100292.22;5034596;28;20213;-59
2024/04/05 10:13:16;;;;;;;4.63;1.97;;;;;;;14.33;68.08;100293.84;5057879;28;20197;-60
2024/04/05 10:15:54;;;;;;;6.53;1.77;;;;;;;14.32;68.53;100297.31;5048840;28;20238;-62
2024/04/05 10:18:28;;;;;;;1.52;1.42;;;;;;;14.30;67.61;100314.66;5061422;28;20243;-67
2024/04/05 10:21:02;;;;;;;4.30;1.45;;;;;;;14.27;68.03;100315.56;5057362;28;20241;-65
2024/04/05 10:23:29;;;;;;;3.55;2.10;;;;;;;14.23;68.76;100318.25;5067464;28;20212;-66
2024/04/05 10:25:57;;;;;;;4.27;2.30;;;;;;;14.11;69.62;100308.19;5063470;28;20699;-64
2024/04/05 10:28:23;;;;;;;3.00;2.00;;;;;;;14.12;69.72;100307.28;5050186;28;20210;-67
2024/04/05 10:30:50;;;;;;;5.00;2.10;;;;;;;14.25;69.82;100306.97;5050289;28;20206;-66
2024/04/05 10:33:18;;;;;;;5.63;1.80;;;;;;;14.40;68.39;100298.00;5066793;28;20209;-65
2024/04/05 10:35:46;;;;;;;3.60;1.92;;;;;;;14.47;67.18;100296.09;5051833;28;20223;-67
2024/04/05 10:38:14;;;;;;;4.50;1.50;;;;;;;14.69;67.73;100304.25;5053903;28;20222;-64
2024/04/05 10:40:41;;;;;;;3.87;1.80;;;;;;;15.31;66.07;100299.19;5040182;28;20264;-66
2024/04/05 10:43:08;;;;;;;3.55;1.50;;;;;;;16.00;63.80;100299.03;5051060;28;20268;-66
2024/04/05 10:45:35;;;;;;;1.50;1.40;;;;;;;16.44;60.35;100292.47;5053039;28;20214;-63
2024/04/05 10:48:01;;;;;;;4.25;2.00;;;;;;;16.68;56.88;100306.44;5054057;28;20287;-65
2024/04/05 10:50:29;;;;;;;1.90;1.67;;;;;;;16.87;57.04;100296.31;5055691;28;20245;-61
2024/04/05 10:52:55;;;;;;;2.70;1.38;;;;;;;16.85;56.51;100308.50;5051964;28;20877;-64
2024/04/05 10:55:22;;;;;;;3.88;1.45;;;;;;;16.62;57.53;100310.09;5056027;28;20335;-65
2024/04/05 10:57:48;;;;;;;1.73;1.42;;;;;;;16.56;57.12;100306.81;5053004;28;20234;-65
2024/04/05 11:00:17;;;;;;;4.25;1.20;;;;;;;16.28;56.80;100299.91;5052102;28;20631;-65
2024/04/05 11:02:43;;;;;;;2.05;1.42;;;;;;;16.08;58.33;100305.69;5048307;28;20217;-63
2024/04/05 11:05:13;;;;;;;3.38;1.42;;;;;;;15.99;58.05;100313.78;5055277;28;20206;-65
2024/04/05 11:07:42;;;;;;;3.22;1.33;;;;;;;15.83;57.42;100321.19;5062204;28;20198;-65
2024/04/05 11:10:17;;;;;;;2.80;1.40;;;;;;;15.55;58.65;100315.88;5052904;28;20585;-63
2024/04/05 11:12:44;;;;;;;4.05;1.95;;;;;;;15.37;59.38;100317.22;5053369;28;20216;-65
2024/04/05 11:15:11;;;;;;;2.85;1.52;;;;;;;15.30;60.10;100320.88;5054585;28;20236;-64
2024/04/05 11:17:39;;;;;;;3.10;1.25;;;;;;;15.37;59.58;100318.97;5036568;28;20255;-64
2024/04/05 11:20:11;;;;;;;4.03;1.15;;;;;;;15.48;59.33;100309.13;5056062;28;20630;-65
2024/04/05 11:22:37;;;;;;;5.95;1.30;;;;;;;15.63;59.81;100310.44;5070860;28;20204;-64
2024/04/05 11:25:07;;;;;;;1.58;1.23;;;;;;;15.81;59.55;100306.53;5072641;28;20213;-64
2024/04/05 11:27:34;;;;;;;4.72;1.50;;;;;;;15.92;58.14;100307.06;5051476;28;20202;-64